Pagrindinis puslapis
METAR-TAF:

METAR-TAF

Oro uostai :

Sitiawan, Malaizija

platuma: 04-13N, ilguma: 100-42E, Aukštis: 7 m

Dabartinis oras

Ataskaita buvo paskelbta 1 valandą ir 14 minutes, ne 19:00 UTC
Ramus vėjas
Temperatūra 24°C
Drėgmė 100%
Slėgis 1009 hPa
Matomumas: 7000 m
Išsisklaidę debesys ne aukštis 3000 ft
Išsisklaidę debesys ne aukštis 14000 ft
Su prošvaistėmis ne aukštis 26000 ft

METAR: WMBA 201900Z 00000KT 7000 SCT030 SCT140 BKN260 24/24 Q1009

Laikas: 04:14 (20:14 UTC)


TAF: trūkstamas

Orai ataskaitas ir orų prognozės (METAR, TAF).

turimą stotys yra geltonos ir raudonos taškus žemėlapyje.

Perkelti pele per norėdami pamatyti stoties vardą.

Tada spustelėkite, norėdami matyti oro stebėjimo ir prognozės.

Norėdami pakeisti žemėlapį: spustelėkite ant žalios mygtukų su juodo kryžiaus žemyn,; žalią mygtuką su brūkšneliu, jei norite nutolinti; arba žalių rodyklių gretimoms žemėlapius.


METAR-TAF: